sensor_id;sensor_type;location;lat;lon;timestamp;temperature;humidity
27896;DHT22;15241;48.374;10.876;2023-04-15T00:01:08;8.60;99.90
27896;DHT22;15241;48.374;10.876;2023-04-15T00:11:15;8.60;99.90
27896;DHT22;15241;48.374;10.876;2023-04-15T00:16:14;8.60;99.90
27896;DHT22;15241;48.374;10.876;2023-04-15T00:21:13;8.60;99.90
27896;DHT22;15241;48.374;10.876;2023-04-15T00:26:12;8.60;99.90
27896;DHT22;15241;48.374;10.876;2023-04-15T00:31:11;8.50;99.90
27896;DHT22;15241;48.374;10.876;2023-04-15T00:36:10;8.60;99.90
27896;DHT22;15241;48.374;10.876;2023-04-15T00:41:11;8.50;99.90
27896;DHT22;15241;48.374;10.876;2023-04-15T00:51:22;8.40;99.90
27896;DHT22;15241;48.374;10.876;2023-04-15T00:56:22;8.30;99.90
27896;DHT22;15241;48.374;10.876;2023-04-15T01:01:21;8.30;99.90
27896;DHT22;15241;48.374;10.876;2023-04-15T01:06:22;8.30;99.90
27896;DHT22;15241;48.374;10.876;2023-04-15T01:11:21;8.20;99.90
27896;DHT22;15241;48.374;10.876;2023-04-15T01:16:21;8.20;99.90
27896;DHT22;15241;48.374;10.876;2023-04-15T01:21:20;8.20;99.90
27896;DHT22;15241;48.374;10.876;2023-04-15T01:26:19;8.10;99.90
27896;DHT22;15241;48.374;10.876;2023-04-15T01:31:19;8.00;99.90
27896;DHT22;15241;48.374;10.876;2023-04-15T01:36:18;7.90;99.90
27896;DHT22;15241;48.374;10.876;2023-04-15T01:41:18;7.80;99.90
27896;DHT22;15241;48.374;10.876;2023-04-15T01:46:19;7.80;99.90
27896;DHT22;15241;48.374;10.876;2023-04-15T01:51:18;7.80;99.90
27896;DHT22;15241;48.374;10.876;2023-04-15T01:56:17;7.80;99.90
27896;DHT22;15241;48.374;10.876;2023-04-15T02:01:17;7.80;99.90
27896;DHT22;15241;48.374;10.876;2023-04-15T02:06:16;7.80;99.90
27896;DHT22;15241;48.374;10.876;2023-04-15T02:11:15;7.80;99.90
27896;DHT22;15241;48.374;10.876;2023-04-15T02:16:17;7.70;99.90
27896;DHT22;15241;48.374;10.876;2023-04-15T02:21:16;7.70;99.90
27896;DHT22;15241;48.374;10.876;2023-04-15T02:26:15;7.70;99.90
27896;DHT22;15241;48.374;10.876;2023-04-15T02:31:14;7.70;99.90
27896;DHT22;15241;48.374;10.876;2023-04-15T02:36:13;7.70;99.90
27896;DHT22;15241;48.374;10.876;2023-04-15T02:41:12;7.70;99.90
27896;DHT22;15241;48.374;10.876;2023-04-15T02:46:12;7.70;99.90
27896;DHT22;15241;48.374;10.876;2023-04-15T02:51:15;7.70;99.90
27896;DHT22;15241;48.374;10.876;2023-04-15T02:56:15;7.70;99.90
27896;DHT22;15241;48.374;10.876;2023-04-15T03:01:14;7.50;99.90
27896;DHT22;15241;48.374;10.876;2023-04-15T03:06:13;7.50;99.90
27896;DHT22;15241;48.374;10.876;2023-04-15T03:11:12;7.40;99.90
27896;DHT22;15241;48.374;10.876;2023-04-15T03:16:11;7.30;99.90
27896;DHT22;15241;48.374;10.876;2023-04-15T03:21:10;7.30;99.90
27896;DHT22;15241;48.374;10.876;2023-04-15T03:26:09;7.20;99.90
27896;DHT22;15241;48.374;10.876;2023-04-15T03:31:08;7.30;99.90
27896;DHT22;15241;48.374;10.876;2023-04-15T03:36:07;7.30;99.90
27896;DHT22;15241;48.374;10.876;2023-04-15T03:41:06;7.40;99.90
27896;DHT22;15241;48.374;10.876;2023-04-15T03:46:05;7.40;99.90
27896;DHT22;15241;48.374;10.876;2023-04-15T03:51:04;7.50;99.90
27896;DHT22;15241;48.374;10.876;2023-04-15T04:01:11;7.30;99.90
27896;DHT22;15241;48.374;10.876;2023-04-15T04:06:10;7.30;99.90
27896;DHT22;15241;48.374;10.876;2023-04-15T04:11:09;7.00;99.90
27896;DHT22;15241;48.374;10.876;2023-04-15T04:16:08;7.00;99.90
27896;DHT22;15241;48.374;10.876;2023-04-15T04:21:07;6.90;99.90
27896;DHT22;15241;48.374;10.876;2023-04-15T04:26:06;7.00;99.90
27896;DHT22;15241;48.374;10.876;2023-04-15T04:31:05;7.00;99.90
27896;DHT22;15241;48.374;10.876;2023-04-15T04:36:06;7.10;99.90
27896;DHT22;15241;48.374;10.876;2023-04-15T04:41:05;7.10;99.90
27896;DHT22;15241;48.374;10.876;2023-04-15T04:46:04;7.10;99.90
27896;DHT22;15241;48.374;10.876;2023-04-15T04:51:03;7.20;99.90
27896;DHT22;15241;48.374;10.876;2023-04-15T05:01:08;7.20;99.90
27896;DHT22;15241;48.374;10.876;2023-04-15T05:06:07;7.30;99.90
27896;DHT22;15241;48.374;10.876;2023-04-15T05:11:06;7.20;99.90
27896;DHT22;15241;48.374;10.876;2023-04-15T05:16:06;7.30;99.90
27896;DHT22;15241;48.374;10.876;2023-04-15T05:21:05;7.20;99.90
27896;DHT22;15241;48.374;10.876;2023-04-15T05:26:04;7.30;99.90
27896;DHT22;15241;48.374;10.876;2023-04-15T05:31:03;7.40;99.90
27896;DHT22;15241;48.374;10.876;2023-04-15T05:36:02;7.40;99.90
27896;DHT22;15241;48.374;10.876;2023-04-15T05:41:01;7.50;99.90
27896;DHT22;15241;48.374;10.876;2023-04-15T05:46:00;7.50;99.90
27896;DHT22;15241;48.374;10.876;2023-04-15T05:50:59;7.50;99.90
27896;DHT22;15241;48.374;10.876;2023-04-15T05:55:58;7.50;99.90
27896;DHT22;15241;48.374;10.876;2023-04-15T06:00:57;7.40;99.90
27896;DHT22;15241;48.374;10.876;2023-04-15T06:05:57;7.40;99.90
27896;DHT22;15241;48.374;10.876;2023-04-15T06:10:55;7.30;99.90
27896;DHT22;15241;48.374;10.876;2023-04-15T06:15:56;7.40;99.90
27896;DHT22;15241;48.374;10.876;2023-04-15T06:20:55;7.40;99.90
27896;DHT22;15241;48.374;10.876;2023-04-15T06:25:54;7.50;99.90
27896;DHT22;15241;48.374;10.876;2023-04-15T06:30:53;7.40;99.90
27896;DHT22;15241;48.374;10.876;2023-04-15T06:35:52;7.50;99.90
27896;DHT22;15241;48.374;10.876;2023-04-15T06:40:51;7.40;99.90
27896;DHT22;15241;48.374;10.876;2023-04-15T06:45:50;7.60;99.90
27896;DHT22;15241;48.374;10.876;2023-04-15T06:50:49;7.50;99.90
27896;DHT22;15241;48.374;10.876;2023-04-15T06:55:48;7.60;99.90
27896;DHT22;15241;48.374;10.876;2023-04-15T07:00:47;7.70;99.90
27896;DHT22;15241;48.374;10.876;2023-04-15T07:05:46;7.70;99.90
27896;DHT22;15241;48.374;10.876;2023-04-15T07:10:46;7.70;99.90
27896;DHT22;15241;48.374;10.876;2023-04-15T07:15:45;7.90;99.90
27896;DHT22;15241;48.374;10.876;2023-04-15T07:20:43;7.80;99.90
27896;DHT22;15241;48.374;10.876;2023-04-15T07:25:42;7.90;99.90
27896;DHT22;15241;48.374;10.876;2023-04-15T07:30:41;8.00;99.90
27896;DHT22;15241;48.374;10.876;2023-04-15T07:35:40;8.20;99.90
27896;DHT22;15241;48.374;10.876;2023-04-15T07:45:47;8.50;99.90
27896;DHT22;15241;48.374;10.876;2023-04-15T07:50:46;8.80;99.90
27896;DHT22;15241;48.374;10.876;2023-04-15T07:55:45;8.90;99.90
27896;DHT22;15241;48.374;10.876;2023-04-15T08:00:44;9.20;99.90
27896;DHT22;15241;48.374;10.876;2023-04-15T08:05:42;9.30;99.90
27896;DHT22;15241;48.374;10.876;2023-04-15T08:10:43;9.60;99.90
27896;DHT22;15241;48.374;10.876;2023-04-15T08:15:42;9.70;99.90
27896;DHT22;15241;48.374;10.876;2023-04-15T08:20:41;9.80;99.90
27896;DHT22;15241;48.374;10.876;2023-04-15T08:25:40;10.00;99.90
27896;DHT22;15241;48.374;10.876;2023-04-15T08:30:39;10.20;99.90
27896;DHT22;15241;48.374;10.876;2023-04-15T08:35:38;10.30;99.90
27896;DHT22;15241;48.374;10.876;2023-04-15T08:40:40;10.30;99.90
27896;DHT22;15241;48.374;10.876;2023-04-15T08:45:39;10.60;99.90
27896;DHT22;15241;48.374;10.876;2023-04-15T08:50:39;10.80;99.90
27896;DHT22;15241;48.374;10.876;2023-04-15T08:55:42;11.00;99.90
27896;DHT22;15241;48.374;10.876;2023-04-15T09:00:41;11.00;99.90
27896;DHT22;15241;48.374;10.876;2023-04-15T09:05:40;10.90;99.90
27896;DHT22;15241;48.374;10.876;2023-04-15T09:10:39;10.80;99.90
27896;DHT22;15241;48.374;10.876;2023-04-15T09:15:39;10.90;99.90
27896;DHT22;15241;48.374;10.876;2023-04-15T09:20:40;11.00;99.90
27896;DHT22;15241;48.374;10.876;2023-04-15T09:25:40;11.10;99.90
27896;DHT22;15241;48.374;10.876;2023-04-15T09:30:41;11.30;99.90
27896;DHT22;15241;48.374;10.876;2023-04-15T09:35:39;11.50;99.90
27896;DHT22;15241;48.374;10.876;2023-04-15T09:40:39;11.50;99.90
27896;DHT22;15241;48.374;10.876;2023-04-15T09:45:38;11.60;99.90
27896;DHT22;15241;48.374;10.876;2023-04-15T09:50:42;11.80;99.90
27896;DHT22;15241;48.374;10.876;2023-04-15T09:55:43;11.90;99.90
27896;DHT22;15241;48.374;10.876;2023-04-15T10:00:42;12.10;99.90
27896;DHT22;15241;48.374;10.876;2023-04-15T10:05:42;12.40;99.90
27896;DHT22;15241;48.374;10.876;2023-04-15T10:10:41;12.90;99.90
27896;DHT22;15241;48.374;10.876;2023-04-15T10:15:43;13.50;99.90
27896;DHT22;15241;48.374;10.876;2023-04-15T10:20:42;13.50;99.90
27896;DHT22;15241;48.374;10.876;2023-04-15T10:25:42;13.90;99.90
27896;DHT22;15241;48.374;10.876;2023-04-15T10:30:43;14.40;99.90
27896;DHT22;15241;48.374;10.876;2023-04-15T10:35:43;14.80;99.90
27896;DHT22;15241;48.374;10.876;2023-04-15T10:40:43;15.00;99.90
27896;DHT22;15241;48.374;10.876;2023-04-15T10:45:43;15.00;99.90
27896;DHT22;15241;48.374;10.876;2023-04-15T10:50:49;15.10;99.90
27896;DHT22;15241;48.374;10.876;2023-04-15T10:55:49;14.90;99.90
27896;DHT22;15241;48.374;10.876;2023-04-15T11:00:52;14.70;99.90
27896;DHT22;15241;48.374;10.876;2023-04-15T11:05:52;14.20;99.90
27896;DHT22;15241;48.374;10.876;2023-04-15T11:10:52;14.00;99.90
27896;DHT22;15241;48.374;10.876;2023-04-15T11:15:55;13.70;99.90
27896;DHT22;15241;48.374;10.876;2023-04-15T11:20:55;13.90;99.70
27896;DHT22;15241;48.374;10.876;2023-04-15T11:25:56;13.90;97.90
27896;DHT22;15241;48.374;10.876;2023-04-15T11:30:55;13.70;97.50
27896;DHT22;15241;48.374;10.876;2023-04-15T11:35:55;13.80;97.20
27896;DHT22;15241;48.374;10.876;2023-04-15T11:40:53;13.70;98.00
27896;DHT22;15241;48.374;10.876;2023-04-15T11:45:55;13.80;97.20
27896;DHT22;15241;48.374;10.876;2023-04-15T11:50:57;13.90;96.80
27896;DHT22;15241;48.374;10.876;2023-04-15T11:55:56;14.00;95.40
27896;DHT22;15241;48.374;10.876;2023-04-15T12:00:58;13.90;95.80
27896;DHT22;15241;48.374;10.876;2023-04-15T12:06:04;14.00;96.20
27896;DHT22;15241;48.374;10.876;2023-04-15T12:11:04;13.80;97.60
27896;DHT22;15241;48.374;10.876;2023-04-15T12:16:05;13.70;97.70
27896;DHT22;15241;48.374;10.876;2023-04-15T12:21:10;13.70;98.20
27896;DHT22;15241;48.374;10.876;2023-04-15T12:26:10;13.50;99.00
27896;DHT22;15241;48.374;10.876;2023-04-15T12:31:10;13.10;99.30
27896;DHT22;15241;48.374;10.876;2023-04-15T12:36:09;12.90;99.90
27896;DHT22;15241;48.374;10.876;2023-04-15T12:41:08;12.70;99.90
27896;DHT22;15241;48.374;10.876;2023-04-15T12:46:07;12.80;99.90
27896;DHT22;15241;48.374;10.876;2023-04-15T12:51:06;12.70;99.90
27896;DHT22;15241;48.374;10.876;2023-04-15T12:56:06;12.70;99.90
27896;DHT22;15241;48.374;10.876;2023-04-15T13:01:05;12.60;99.90
27896;DHT22;15241;48.374;10.876;2023-04-15T13:06:04;12.80;99.90
27896;DHT22;15241;48.374;10.876;2023-04-15T13:11:04;12.70;99.90
27896;DHT22;15241;48.374;10.876;2023-04-15T13:16:03;12.90;99.90
27896;DHT22;15241;48.374;10.876;2023-04-15T13:21:03;12.70;99.90
27896;DHT22;15241;48.374;10.876;2023-04-15T13:26:02;12.70;99.90
27896;DHT22;15241;48.374;10.876;2023-04-15T13:31:01;12.60;99.40
27896;DHT22;15241;48.374;10.876;2023-04-15T13:35:59;12.60;99.20
27896;DHT22;15241;48.374;10.876;2023-04-15T13:40:59;12.50;99.90
27896;DHT22;15241;48.374;10.876;2023-04-15T13:45:58;12.30;99.90
27896;DHT22;15241;48.374;10.876;2023-04-15T13:50:57;12.30;99.90
27896;DHT22;15241;48.374;10.876;2023-04-15T14:01:03;12.10;99.90
27896;DHT22;15241;48.374;10.876;2023-04-15T14:06:02;12.20;99.90
27896;DHT22;15241;48.374;10.876;2023-04-15T14:11:01;12.10;99.90
27896;DHT22;15241;48.374;10.876;2023-04-15T14:16:00;12.10;99.90
27896;DHT22;15241;48.374;10.876;2023-04-15T14:21:00;12.00;99.90
27896;DHT22;15241;48.374;10.876;2023-04-15T14:25:59;12.00;99.90
27896;DHT22;15241;48.374;10.876;2023-04-15T14:30:58;11.80;99.90
27896;DHT22;15241;48.374;10.876;2023-04-15T14:35:57;11.80;99.90
27896;DHT22;15241;48.374;10.876;2023-04-15T14:40:56;11.70;99.90
27896;DHT22;15241;48.374;10.876;2023-04-15T14:45:55;11.50;99.90
27896;DHT22;15241;48.374;10.876;2023-04-15T14:50:54;11.40;99.90
27896;DHT22;15241;48.374;10.876;2023-04-15T14:55:53;11.20;99.90
27896;DHT22;15241;48.374;10.876;2023-04-15T15:00:52;11.10;99.90
27896;DHT22;15241;48.374;10.876;2023-04-15T15:05:51;11.20;99.90
27896;DHT22;15241;48.374;10.876;2023-04-15T15:10:50;11.20;99.90
27896;DHT22;15241;48.374;10.876;2023-04-15T15:15:50;11.20;99.90
27896;DHT22;15241;48.374;10.876;2023-04-15T15:20:49;11.20;99.90
27896;DHT22;15241;48.374;10.876;2023-04-15T15:25:47;11.10;99.90
27896;DHT22;15241;48.374;10.876;2023-04-15T15:30:46;11.10;99.90
27896;DHT22;15241;48.374;10.876;2023-04-15T15:35:45;10.90;99.90
27896;DHT22;15241;48.374;10.876;2023-04-15T15:40:44;10.80;99.90
27896;DHT22;15241;48.374;10.876;2023-04-15T15:45:44;10.80;99.90
27896;DHT22;15241;48.374;10.876;2023-04-15T15:50:44;10.70;99.90
27896;DHT22;15241;48.374;10.876;2023-04-15T15:55:43;10.50;99.90
27896;DHT22;15241;48.374;10.876;2023-04-15T16:00:42;10.60;99.90
27896;DHT22;15241;48.374;10.876;2023-04-15T16:05:41;10.60;99.90
27896;DHT22;15241;48.374;10.876;2023-04-15T16:10:40;10.60;99.90
27896;DHT22;15241;48.374;10.876;2023-04-15T16:15:39;10.60;99.90
27896;DHT22;15241;48.374;10.876;2023-04-15T16:20:39;10.60;99.90
27896;DHT22;15241;48.374;10.876;2023-04-15T16:25:39;10.60;99.90
27896;DHT22;15241;48.374;10.876;2023-04-15T16:30:39;10.50;99.90
27896;DHT22;15241;48.374;10.876;2023-04-15T16:35:38;10.40;99.90
27896;DHT22;15241;48.374;10.876;2023-04-15T16:40:38;10.20;99.90
27896;DHT22;15241;48.374;10.876;2023-04-15T16:45:37;10.00;99.90
27896;DHT22;15241;48.374;10.876;2023-04-15T16:50:38;9.90;99.90
27896;DHT22;15241;48.374;10.876;2023-04-15T16:55:38;9.60;99.90
27896;DHT22;15241;48.374;10.876;2023-04-15T17:00:37;9.60;99.90
27896;DHT22;15241;48.374;10.876;2023-04-15T17:05:36;9.40;99.90
27896;DHT22;15241;48.374;10.876;2023-04-15T17:10:36;9.30;99.90
27896;DHT22;15241;48.374;10.876;2023-04-15T17:15:34;9.40;99.90
27896;DHT22;15241;48.374;10.876;2023-04-15T17:20:34;9.50;99.90
27896;DHT22;15241;48.374;10.876;2023-04-15T17:25:33;9.50;99.90
27896;DHT22;15241;48.374;10.876;2023-04-15T17:30:32;9.50;99.90
27896;DHT22;15241;48.374;10.876;2023-04-15T17:35:31;9.50;99.90
27896;DHT22;15241;48.374;10.876;2023-04-15T17:40:30;9.50;99.90
27896;DHT22;15241;48.374;10.876;2023-04-15T17:45:30;9.40;99.90
27896;DHT22;15241;48.374;10.876;2023-04-15T17:50:29;9.30;99.90
27896;DHT22;15241;48.374;10.876;2023-04-15T17:55:27;9.30;99.90
27896;DHT22;15241;48.374;10.876;2023-04-15T18:00:26;9.20;99.90
27896;DHT22;15241;48.374;10.876;2023-04-15T18:05:26;9.20;99.90
27896;DHT22;15241;48.374;10.876;2023-04-15T18:10:25;9.10;99.90
27896;DHT22;15241;48.374;10.876;2023-04-15T18:15:24;9.10;99.90
27896;DHT22;15241;48.374;10.876;2023-04-15T18:20:23;9.10;99.90
27896;DHT22;15241;48.374;10.876;2023-04-15T18:25:22;9.00;99.90
27896;DHT22;15241;48.374;10.876;2023-04-15T18:30:21;9.00;99.90
27896;DHT22;15241;48.374;10.876;2023-04-15T18:35:20;8.90;99.90
27896;DHT22;15241;48.374;10.876;2023-04-15T18:40:19;8.80;99.90
27896;DHT22;15241;48.374;10.876;2023-04-15T18:45:18;8.80;99.90
27896;DHT22;15241;48.374;10.876;2023-04-15T18:50:18;8.90;99.90
27896;DHT22;15241;48.374;10.876;2023-04-15T18:55:18;8.80;99.90
27896;DHT22;15241;48.374;10.876;2023-04-15T19:00:19;8.70;99.90
27896;DHT22;15241;48.374;10.876;2023-04-15T19:05:22;8.70;99.90
27896;DHT22;15241;48.374;10.876;2023-04-15T19:10:21;8.60;99.90
27896;DHT22;15241;48.374;10.876;2023-04-15T19:15:20;8.60;99.90
27896;DHT22;15241;48.374;10.876;2023-04-15T19:20:19;8.60;99.90
27896;DHT22;15241;48.374;10.876;2023-04-15T19:25:18;8.60;99.90
27896;DHT22;15241;48.374;10.876;2023-04-15T19:30:17;8.50;99.90
27896;DHT22;15241;48.374;10.876;2023-04-15T19:35:16;8.50;99.90
27896;DHT22;15241;48.374;10.876;2023-04-15T19:40:17;8.40;99.90
27896;DHT22;15241;48.374;10.876;2023-04-15T19:45:17;8.30;99.90
27896;DHT22;15241;48.374;10.876;2023-04-15T19:50:16;8.30;99.90
27896;DHT22;15241;48.374;10.876;2023-04-15T19:55:15;8.20;99.90
27896;DHT22;15241;48.374;10.876;2023-04-15T20:00:15;8.20;99.90
27896;DHT22;15241;48.374;10.876;2023-04-15T20:05:14;8.20;99.90
27896;DHT22;15241;48.374;10.876;2023-04-15T20:10:13;8.20;99.90
27896;DHT22;15241;48.374;10.876;2023-04-15T20:15:12;8.10;99.90
27896;DHT22;15241;48.374;10.876;2023-04-15T20:20:11;8.10;99.90
27896;DHT22;15241;48.374;10.876;2023-04-15T20:25:10;8.10;99.90
27896;DHT22;15241;48.374;10.876;2023-04-15T20:30:10;8.00;99.90
27896;DHT22;15241;48.374;10.876;2023-04-15T20:35:09;8.00;99.90
27896;DHT22;15241;48.374;10.876;2023-04-15T20:40:12;8.00;99.90
27896;DHT22;15241;48.374;10.876;2023-04-15T20:45:11;8.10;99.90
27896;DHT22;15241;48.374;10.876;2023-04-15T20:50:11;8.10;99.90
27896;DHT22;15241;48.374;10.876;2023-04-15T20:55:11;8.00;99.90
27896;DHT22;15241;48.374;10.876;2023-04-15T21:00:12;8.00;99.90
27896;DHT22;15241;48.374;10.876;2023-04-15T21:05:12;7.90;99.90
27896;DHT22;15241;48.374;10.876;2023-04-15T21:10:11;7.90;99.90
27896;DHT22;15241;48.374;10.876;2023-04-15T21:15:11;8.00;99.90
27896;DHT22;15241;48.374;10.876;2023-04-15T21:20:12;8.00;99.90
27896;DHT22;15241;48.374;10.876;2023-04-15T21:25:11;7.80;99.90
27896;DHT22;15241;48.374;10.876;2023-04-15T21:30:12;8.00;99.90
27896;DHT22;15241;48.374;10.876;2023-04-15T21:35:12;7.90;99.90
27896;DHT22;15241;48.374;10.876;2023-04-15T21:40:12;7.80;99.90
27896;DHT22;15241;48.374;10.876;2023-04-15T21:45:12;7.80;99.90
27896;DHT22;15241;48.374;10.876;2023-04-15T21:50:12;7.90;99.90
27896;DHT22;15241;48.374;10.876;2023-04-15T21:55:11;7.90;99.90
27896;DHT22;15241;48.374;10.876;2023-04-15T22:00:11;7.80;99.90
27896;DHT22;15241;48.374;10.876;2023-04-15T22:05:11;7.80;99.90
27896;DHT22;15241;48.374;10.876;2023-04-15T22:10:10;7.80;99.90
27896;DHT22;15241;48.374;10.876;2023-04-15T22:15:10;7.90;99.90
27896;DHT22;15241;48.374;10.876;2023-04-15T22:20:11;7.90;99.90
27896;DHT22;15241;48.374;10.876;2023-04-15T22:25:10;7.80;99.90
27896;DHT22;15241;48.374;10.876;2023-04-15T22:30:10;7.80;99.90
27896;DHT22;15241;48.374;10.876;2023-04-15T22:40:17;7.70;99.90
27896;DHT22;15241;48.374;10.876;2023-04-15T22:45:16;7.80;99.90
27896;DHT22;15241;48.374;10.876;2023-04-15T22:50:15;7.90;99.90
27896;DHT22;15241;48.374;10.876;2023-04-15T22:55:16;7.80;99.90
27896;DHT22;15241;48.374;10.876;2023-04-15T23:00:15;7.90;99.90
27896;DHT22;15241;48.374;10.876;2023-04-15T23:05:14;7.90;99.90
27896;DHT22;15241;48.374;10.876;2023-04-15T23:10:13;7.90;99.90
27896;DHT22;15241;48.374;10.876;2023-04-15T23:15:12;7.90;99.90
27896;DHT22;15241;48.374;10.876;2023-04-15T23:20:12;8.00;99.90
27896;DHT22;15241;48.374;10.876;2023-04-15T23:25:11;7.90;99.90
27896;DHT22;15241;48.374;10.876;2023-04-15T23:30:10;8.00;99.90
27896;DHT22;15241;48.374;10.876;2023-04-15T23:35:09;7.90;99.90
27896;DHT22;15241;48.374;10.876;2023-04-15T23:40:11;7.90;99.90
27896;DHT22;15241;48.374;10.876;2023-04-15T23:45:11;7.90;99.90
27896;DHT22;15241;48.374;10.876;2023-04-15T23:50:11;7.80;99.90
27896;DHT22;15241;48.374;10.876;2023-04-15T23:55:10;7.80;99.90
